ADDS METAR Data INFO
IDs: Format: Raw Decoded Include TAF

Data at: 0921 UTC 13 Dec 2017

PAJC 130844Z AUTO 09009KT 10SM -RA BKN023 BKN030 BKN036 04/02 A2936 RMK AO2 RAB39 P0000
PAJC 130757Z AUTO 08004KT 10SM FEW012 04/02 A2936 RMK AO2 SLP943 T00390022 400670039
PAJC 130720Z AUTO 12007KT 10SM SCT009 SCT028 04/02 A2937 RMK AO2
PAJC 130659Z AUTO 10006KT 9SM FEW009 SCT016 BKN024 04/03 A2937 RMK AO2 RAE51 SLP945 P0000 T00440028
PAJC 130657Z AUTO 10007KT 9SM FEW009 SCT016 BKN024 04/03 A2937 RMK AO2 RAE51 P0000
PAJC 130650Z AUTO 10006KT 10SM -RA FEW009 SCT017 BKN030 04/03 A2937 RMK AO2 P0000
PAJC 130622Z AUTO 12005KT 9SM -RA FEW008 BKN024 OVC035 04/03 A2937 RMK AO2 P0000
PAJC 130557Z AUTO 10007KT 8SM -RA FEW023 BKN028 BKN033 04/03 A2936 RMK AO2 SLP942 P0003 60006 T00440028 10061 20039 53010
PAJC 130553Z AUTO 10008KT 7SM -RA FEW021 BKN028 BKN033 04/03 A2936 RMK AO2 P0003
PAJC 130547Z AUTO 09008KT 8SM -RA FEW021 BKN030 04/03 A2936 RMK AO2 P0003
PAJC 130505Z AUTO 12007KT 8SM -RA SCT024 BKN029 OVC037 04/02 A2935 RMK AO2 P0001
PAJC 130459Z AUTO 10007G16KT 9SM -RA FEW024 BKN030 OVC035 04/02 A2934 RMK AO2 SLP936 P0002 T00390017
PAJC 130457Z AUTO 10007G16KT 9SM -RA SCT024 BKN033 OVC042 04/02 A2934 RMK AO2 P0002
PAJC 130357Z AUTO 12004KT 7SM -RA SCT018 BKN023 OVC032 05/02 A2933 RMK AO2 SLP932 P0001 T00500022
PAJC 130350Z AUTO 12007KT 10SM -RA FEW013 BKN026 OVC032 05/03 A2933 RMK AO2 P0000
PAJC 130341Z AUTO 10008KT 10SM -RA FEW016 OVC030 05/02 A2933 RMK AO2 P0000
PAJC 130259Z AUTO VRB06G20KT 10SM -RA FEW017 BKN028 OVC037 06/03 A2932 RMK AO2 SLP929 P0000 60000 T00610028 50018
PAJC 130257Z AUTO 15010G20KT 10SM -RA BKN028 OVC037 06/03 A2932 RMK AO2 P0000
PAJC 130157Z AUTO 10010G18KT 10SM -RA OVC034 06/02 A2929 RMK AO2 SLP919 P0000 T00610022
PAJC 130120Z AUTO VRB04KT 10SM -RA OVC031 06/01 A2928 RMK AO2 P0000
PAJC 130057Z AUTO 15008KT 10SM -RA OVC027 07/01 A2927 RMK AO2 RAE12B40 SLP911 P0000 T00670011
PAJC 122257Z AUTO VRB03KT 6SM -RA BR FEW016 BKN021 OVC032 06/04 A2921 RMK AO2 SLP891 P0000 T00560039
PAJC 122245Z AUTO 27005KT 8SM -RA FEW016 BKN021 OVC032 06/04 A2921 RMK AO2 P0000
PAJC 122237Z AUTO 13008KT 090V220 10SM -RA SCT019 SCT027 OVC033 06/04 A2920 RMK AO2 P0000
PAJC 122157Z AUTO 11008G15KT 10SM -RA FEW015 SCT021 OVC029 06/04 A2919 RMK AO2 SLP885 P0001 T00610039
PAJC 122106Z AUTO 16015G21KT 7SM -RA FEW009 BKN018 OVC034 06/04 A2918 RMK AO2 P0000
PAJC 122022Z AUTO 16008KT 140V200 9SM -RA FEW005 BKN017 OVC038 05/04 A2917 RMK AO2 CIG 012V024 P0001
PAJC 121957Z AUTO 16004KT 10SM -RA SCT014 BKN021 OVC034 06/04 A2915 RMK AO2 SLP870 P0001 T00560039
PAJC 121739Z AUTO 00000KT 10SM -RA SCT010 OVC015 05/03 A2905 RMK AO2 P0002
PAJC 121722Z AUTO VRB03KT 3SM -RA BR BKN010 OVC017 04/04 A2904 RMK AO2 CIG 007V013 P0002
PAJC 121718Z AUTO VRB03KT 3SM -RA BR BKN008 OVC013 04/04 A2903 RMK AO2 CIG 007V011 P0002
PAJC 121714Z AUTO 18003KT 2 1/2SM -RA BR BKN008 OVC013 04/04 A2903 RMK AO2 CIG 007V011 P0002
PAJC 121711Z AUTO 19004KT 2 1/2SM -RA BR SCT008 BKN013 OVC020 04/04 A2903 RMK AO2 P0002
PAJC 121653Z AUTO 00000KT 3SM -RA BR BKN011 OVC019 04/04 A2902 RMK AO2 P0002
PAJC 121638Z AUTO 23004KT 7SM -RA SCT006 OVC011 04/03 A2901 RMK AO2 P0002
PAJC 121617Z AUTO VRB04KT 3SM -RA BR BKN006 06/05 A2900 RMK AO2 P0001
PAJC 121557Z AUTO VRB04KT 5SM -RA BR FEW006 BKN011 OVC029 06/05 A2900 RMK AO2 CIG 008V014 SLP820 P0008 T00560050
PAJC 121550Z AUTO 03006KT 5SM -RA BR SCT010 BKN014 OVC034 06/05 A2900 RMK AO2 P0006
PAJC 121535Z AUTO 03006KT 8SM -RA SCT010 BKN017 OVC035 06/04 A2900 RMK AO2 P0003
PAJC 121532Z AUTO 04007KT 8SM -RA SCT007 BKN013 OVC035 06/04 A2900 RMK AO2 P0003
PAJC 121527Z AUTO 06007KT 6SM -RA BR SCT007 BKN015 OVC035 06/04 A2900 RMK AO2 P0002
PAJC 121512Z AUTO 05008G14KT 7SM -RA BKN007 OVC012 06/05 A2900 RMK AO2 CIG 004V009 P0001
PAJC 121457Z AUTO 03010G16KT 7SM -RA OVC005 06/05 A2900 RMK AO2 CIG 004V008 SLP819 P0002 60018 T00560050 58013
PAJC 121430Z AUTO 03014KT 9SM -RA OVC005 06/05 A2900 RMK AO2 P0001
PAJC 121357Z AUTO 02009KT 6SM -RA BR OVC005 06/05 A2901 RMK AO2 SLP824 P0002 T00560050
PAJC 121346Z AUTO 03012G18KT 9SM -RA OVC005 06/04 A2902 RMK AO2 P0001
PAJC 121341Z AUTO 03014G17KT 7SM -RA OVC007 05/04 A2902 RMK AO2 CIG 005V009 P0001
PAJC 121335Z AUTO 03010G19KT 6SM -RA BR BKN005 OVC010 05/04 A2902 RMK AO2 P0001
PAJC 121327Z AUTO 03014G19KT 6SM -RA BR BKN008 OVC013 05/04 A2902 RMK AO2 CIG 006V010 P0000
PAJC 121259Z AUTO 04014G17KT 6SM RA BR BKN011 OVC018 04/03 A2903 RMK AO2 PK WND 03027/1238 SLP831 P0014 T00440033
PAJC 121257Z AUTO 04010KT 7SM RA BKN011 OVC022 04/03 A2903 RMK AO2 PK WND 03027/1238 P0013
PAJC 121157Z AUTO 03011G21KT 5SM -RA BR OVC009 05/04 A2905 RMK AO2 SLP839 P0016 60018 70064 T00500039 10061 20050 58021
PAJC 121117Z AUTO 03012G21KT 5SM -RA BR BKN009 OVC014 06/04 A2907 RMK AO2 P0005
PAJC 121057Z AUTO 03013G20KT 8SM -RA OVC009 06/04 A2907 RMK AO2 RAB06 CIG 007V013 SLP846 P0000 T00560044
PAJC 121014Z AUTO 04010KT 10SM -RA SCT013 BKN018 OVC043 06/04 A2910 RMK AO2 RAB06 P0000
PAJC 121003Z AUTO 05010KT 9SM BKN013 BKN018 OVC041 06/04 A2910 RMK AO2
PAJC 120957Z AUTO 04009KT 9SM BKN015 OVC041 06/04 A2911 RMK AO2 RAB0859E32 SLP856 P0000 T00560039
PAJC 120929Z AUTO 08011G15KT 10SM -RA SCT012 BKN021 OVC045 06/04 A2912 RMK AO2 RAB0859 P0000
PAJC 120917Z AUTO 05009G14KT 10SM BKN012 BKN021 OVC042 06/04 A2912 RMK AO2 RAB0859E12 P0000
PAJC 120913Z AUTO 08010G15KT 10SM SCT012 BKN017 OVC050 06/03 A2912 RMK AO2 RAB0859E12 P0000
PAJC 120857Z AUTO 06009G16KT 10SM BKN014 OVC019 06/04 A2912 RMK AO2 RAE55 SLP860 P0002 60002 T00560039 51010
PAJC 120851Z AUTO 05009G15KT 8SM -RA BKN014 BKN019 OVC026 06/04 A2912 RMK AO2 P0002
PAJC 120831Z AUTO 06009G16KT 8SM -RA SCT014 BKN019 OVC032 06/04 A2912 RMK AO2 P0001
PAJC 120822Z AUTO 04010G17KT 6SM -RA BR BKN014 BKN022 OVC032 06/04 A2912 RMK AO2 P0000
PAJC 120757Z AUTO 05009KT 9SM -RA OVC016 06/03 A2911 RMK AO2 RAB55 SLP858 P0000 T00610033 400610022
PAJC 120726Z AUTO 05010G19KT 10SM BKN016 OVC026 06/03 A2911 RMK AO2
PAJC 120716Z AUTO 07010G15KT 10SM BKN014 BKN020 OVC029 06/03 A2910 RMK AO2
PAJC 120657Z AUTO 08008G14KT 050V110 10SM BKN016 OVC020 06/03 A2910 RMK AO2 SLP855 T00610033
PAJC 120557Z AUTO 09012G18KT 10SM SCT019 BKN025 OVC037 06/03 A2909 RMK AO2 RAB04E16 SLP850 P0000 60038 T00610028 10061 20044 50003
PAJC 120457Z AUTO 08010G16KT 030V110 10SM BKN017 BKN023 OVC030 06/03 A2910 RMK AO2 SLP853 T00610033
PAJC 120449Z AUTO 08009G16KT 10SM SCT014 BKN018 OVC030 06/03 A2910 RMK AO2
PAJC 120407Z AUTO 06007KT 10SM SCT014 BKN019 OVC039 06/04 A2910 RMK AO2
PAJC 120357Z AUTO 07011G16KT 10SM BKN014 BKN020 OVC048 06/04 A2909 RMK AO2 RAB07E17 SLP852 P0000 T00610039
PAJC 120343Z AUTO 08012G20KT 10SM BKN014 OVC039 06/04 A2909 RMK AO2 RAB07E17 P0000
PAJC 120340Z AUTO 08012G20KT 10SM BKN016 OVC038 06/04 A2909 RMK AO2 RAB07E17 P0000
PAJC 120323Z AUTO 07013G24KT 10SM BKN014 BKN021 OVC036 06/04 A2909 RMK AO2 RAB07E17 P0000
PAJC 120313Z AUTO 08014G21KT 10SM -RA SCT012 OVC019 06/04 A2909 RMK AO2 RAB07 P0000
PAJC 120306Z AUTO 08008G23KT 10SM BKN012 OVC019 06/04 A2909 RMK AO2
PAJC 120259Z AUTO 08014G22KT 050V120 10SM SCT012 OVC019 06/04 A2908 RMK AO2 RAE39 SLP848 P0006 60038 T00610039 56013
PAJC 120257Z AUTO 08014G22KT 10SM SCT012 OVC019 06/04 A2908 RMK AO2 RAE39 P0006
PAJC 120157Z AUTO 02012G22KT 6SM RA BR OVC014 05/03 A2909 RMK AO2 PK WND 01027/0127 SLP853 P0018 T00500033
PAJC 112357Z AUTO 05011G22KT 5SM -RA BR OVC011 05/03 A2914 RMK AO2 SLP869 P0007 60008 T00500033 10050 20039 56020
PAJC 112333Z AUTO 04008KT 6SM -RA BR BKN014 OVC028 04/03 A2915 RMK AO2 P0002
PAJC 112323Z AUTO 04008KT 8SM -RA BKN016 OVC025 04/03 A2916 RMK AO2 P0001
PAJC 112315Z AUTO 04009KT 7SM -RA BKN014 BKN018 OVC025 05/03 A2916 RMK AO2 P0001
PAJC 112309Z AUTO 04009KT 8SM -RA BKN015 OVC023 04/03 A2916 RMK AO2 P0000
PAJC 112257Z AUTO 04008KT 9SM -RA BKN014 OVC019 04/03 A2917 RMK AO2 RAB22 P0001
PAJC 112145Z AUTO VRB04KT 10SM -RA BKN022 OVC033 04/01 A2920 RMK AO2 RAE06B29 P0000